createdAt,value
2023-04-15T00:01:13.195Z,95829.13
2023-04-15T00:03:40.156Z,95832.94
2023-04-15T00:06:07.568Z,95827.09
2023-04-15T00:08:34.443Z,95823.91
2023-04-15T00:11:03.287Z,95827.56
2023-04-15T00:13:30.215Z,95824.22
2023-04-15T00:15:57.345Z,95826.22
2023-04-15T00:18:24.889Z,95827.34
2023-04-15T00:20:52.454Z,95827.53
2023-04-15T00:23:19.478Z,95825.16
2023-04-15T00:25:46.866Z,95828.00
2023-04-15T00:28:13.864Z,95825.47
2023-04-15T00:30:40.704Z,95833.63
2023-04-15T00:33:07.928Z,95824.13
2023-04-15T00:35:35.795Z,95820.78
2023-04-15T00:38:04.812Z,95813.09
2023-04-15T00:40:31.629Z,95814.09
2023-04-15T00:42:58.404Z,95810.91
2023-04-15T00:45:26.490Z,95819.06
2023-04-15T00:47:54.337Z,95814.84
2023-04-15T00:50:21.214Z,95814.19
2023-04-15T00:52:49.125Z,95819.81
2023-04-15T00:55:16.164Z,95813.66
2023-04-15T00:57:43.067Z,95818.44
2023-04-15T01:00:11.800Z,95812.41
2023-04-15T01:02:39.644Z,95814.41
2023-04-15T01:05:08.365Z,95811.22
2023-04-15T01:07:35.719Z,95822.88
2023-04-15T01:10:04.438Z,95815.19
2023-04-15T01:12:33.332Z,95817.31
2023-04-15T01:15:00.675Z,95813.81
2023-04-15T01:17:28.166Z,95813.28
2023-04-15T01:19:57.984Z,95813.59
2023-04-15T01:22:27.090Z,95817.53
2023-04-15T01:25:10.789Z,95815.34
2023-04-15T01:27:40.900Z,95808.38
2023-04-15T01:30:09.223Z,95807.69
2023-04-15T01:32:37.189Z,95807.84
2023-04-15T01:35:04.977Z,95814.16
2023-04-15T01:37:32.920Z,95813.44
2023-04-15T01:40:00.199Z,95812.63
2023-04-15T01:42:27.751Z,95808.28
2023-04-15T01:44:54.939Z,95811.25
2023-04-15T01:47:22.391Z,95815.75
2023-04-15T01:49:49.350Z,95810.75
2023-04-15T01:52:16.290Z,95804.56
2023-04-15T01:54:43.277Z,95809.06
2023-04-15T01:57:12.122Z,95806.56
2023-04-15T01:59:38.999Z,95802.91
2023-04-15T02:02:06.337Z,95808.22
2023-04-15T02:04:34.467Z,95802.91
2023-04-15T02:07:01.706Z,95805.56
2023-04-15T02:09:29.180Z,95802.91
2023-04-15T02:11:56.449Z,95796.56
2023-04-15T02:14:24.688Z,95802.59
2023-04-15T02:16:51.815Z,95803.44
2023-04-15T02:19:18.856Z,95794.47
2023-04-15T02:21:45.673Z,95794.31
2023-04-15T02:24:12.527Z,95791.78
2023-04-15T02:26:41.487Z,95794.47
2023-04-15T02:29:08.406Z,95798.94
2023-04-15T02:31:40.328Z,95794.63
2023-04-15T02:34:07.349Z,95803.44
2023-04-15T02:36:34.643Z,95794.47
2023-04-15T02:39:02.176Z,95795.44
2023-04-15T02:41:30.408Z,95791.13
2023-04-15T02:43:58.038Z,95793.78
2023-04-15T02:46:24.992Z,95794.78
2023-04-15T02:48:53.286Z,95802.91
2023-04-15T02:51:25.896Z,95799.88
2023-04-15T02:53:52.732Z,95800.03
2023-04-15T02:56:19.875Z,95795.00
2023-04-15T02:58:50.454Z,95790.81
2023-04-15T03:01:17.317Z,95799.09
2023-04-15T03:03:44.473Z,95793.94
2023-04-15T03:06:11.662Z,95791.56
2023-04-15T03:08:38.500Z,95791.03
2023-04-15T03:11:05.613Z,95790.53
2023-04-15T03:13:33.846Z,95800.47
2023-04-15T03:16:09.005Z,95802.44
2023-04-15T03:18:36.203Z,95795.59
2023-04-15T03:21:04.091Z,95800.25
2023-04-15T03:23:34.670Z,95796.06
2023-04-15T03:26:04.224Z,95799.84
2023-04-15T03:28:32.891Z,95801.00
2023-04-15T03:31:01.328Z,95800.44
2023-04-15T03:33:29.563Z,95799.75
2023-04-15T03:35:56.661Z,95795.41
2023-04-15T03:38:23.569Z,95793.88
2023-04-15T03:40:50.494Z,95791.38
2023-04-15T03:43:17.327Z,95796.88
2023-04-15T03:45:44.448Z,95784.69
2023-04-15T03:48:17.671Z,95789.34
2023-04-15T03:50:45.959Z,95790.31
2023-04-15T03:53:12.862Z,95789.63
2023-04-15T03:55:39.997Z,95787.13
2023-04-15T03:58:06.984Z,95788.94
2023-04-15T04:00:34.039Z,95787.44
2023-04-15T04:03:01.087Z,95784.91
2023-04-15T04:05:28.190Z,95787.72
2023-04-15T04:07:55.341Z,95788.53
2023-04-15T04:10:22.467Z,95788.72
2023-04-15T04:12:49.713Z,95792.19
2023-04-15T04:15:17.010Z,95791.38
2023-04-15T04:17:43.841Z,95783.41
2023-04-15T04:20:12.505Z,95795.84
2023-04-15T04:22:40.510Z,95790.66
2023-04-15T04:25:11.328Z,95794.31
2023-04-15T04:27:38.396Z,95791.66
2023-04-15T04:30:17.836Z,95798.94
2023-04-15T04:32:54.997Z,95796.13
2023-04-15T04:35:27.324Z,95802.44
2023-04-15T04:37:59.119Z,95798.09
2023-04-15T04:40:26.588Z,95801.75
2023-04-15T04:42:54.666Z,95801.75
2023-04-15T04:45:22.807Z,95800.91
2023-04-15T04:47:49.858Z,95804.41
2023-04-15T04:50:17.944Z,95805.38
2023-04-15T04:52:44.807Z,95808.03
2023-04-15T04:55:12.647Z,95807.34
2023-04-15T04:57:39.778Z,95808.34
2023-04-15T05:00:13.115Z,95811.16
2023-04-15T05:02:42.403Z,95812.97
2023-04-15T05:05:16.597Z,95821.06
2023-04-15T05:07:44.023Z,95820.09
2023-04-15T05:10:19.500Z,95822.75
2023-04-15T05:12:50.613Z,95819.94
2023-04-15T05:15:20.891Z,95819.13
2023-04-15T05:17:48.473Z,95828.75
2023-04-15T05:20:16.260Z,95825.94
2023-04-15T05:22:47.564Z,95822.44
2023-04-15T05:25:15.290Z,95811.81
2023-04-15T05:27:42.253Z,95817.00
2023-04-15T05:30:13.444Z,95820.50
2023-04-15T05:32:41.998Z,95818.66
2023-04-15T05:35:12.867Z,95830.28
2023-04-15T05:37:40.862Z,95822.16
2023-04-15T05:40:11.802Z,95824.66
2023-04-15T05:42:41.917Z,95833.34
2023-04-15T05:45:09.785Z,95828.69
2023-04-15T05:47:37.780Z,95827.56
2023-04-15T05:50:10.345Z,95825.47
2023-04-15T05:52:38.154Z,95828.66
2023-04-15T05:55:06.726Z,95823.91
2023-04-15T05:57:37.607Z,95835.91
2023-04-15T06:00:09.209Z,95836.41
2023-04-15T06:02:39.393Z,95838.66
2023-04-15T06:05:16.002Z,95828.69
2023-04-15T06:07:44.063Z,95823.91
2023-04-15T06:10:12.214Z,95831.44
2023-04-15T06:12:39.745Z,95839.81
2023-04-15T06:15:11.341Z,95828.59
2023-04-15T06:17:38.521Z,95836.09
2023-04-15T06:20:06.725Z,95839.97
2023-04-15T06:22:34.004Z,95836.72
2023-04-15T06:25:01.495Z,95835.13
2023-04-15T06:27:29.037Z,95831.69
2023-04-15T06:29:56.616Z,95836.28
2023-04-15T06:32:24.574Z,95842.50
2023-04-15T06:34:52.250Z,95835.59
2023-04-15T06:37:22.669Z,95840.97
2023-04-15T06:39:51.148Z,95844.38
2023-04-15T06:42:18.155Z,95851.47
2023-04-15T06:44:45.244Z,95854.88
2023-04-15T06:47:15.433Z,95852.94
2023-04-15T06:49:43.245Z,95850.19
2023-04-15T06:52:11.304Z,95848.25
2023-04-15T06:54:39.181Z,95843.31
2023-04-15T06:57:07.884Z,95850.06
2023-04-15T06:59:34.985Z,95853.13
2023-04-15T07:02:02.168Z,95838.66
2023-04-15T07:04:29.582Z,95851.56
2023-04-15T07:06:57.856Z,95844.78
2023-04-15T07:09:25.548Z,95845.16
2023-04-15T07:12:24.413Z,95840.34
2023-04-15T07:14:52.153Z,95839.19
2023-04-15T07:17:19.059Z,95843.72
2023-04-15T07:19:46.420Z,95839.44
2023-04-15T07:22:13.601Z,95841.25
2023-04-15T07:24:44.617Z,95827.03
2023-04-15T07:27:12.112Z,95831.19
2023-04-15T07:29:39.512Z,95836.50
2023-04-15T07:32:07.689Z,95829.28
2023-04-15T07:34:35.256Z,95835.22
2023-04-15T07:37:02.621Z,95833.28
2023-04-15T07:39:30.089Z,95836.56
2023-04-15T07:41:57.130Z,95836.28
2023-04-15T07:44:25.105Z,95835.19
2023-04-15T07:46:52.757Z,95837.41
2023-04-15T07:49:21.548Z,95841.47
2023-04-15T07:51:50.429Z,95831.25
2023-04-15T07:54:18.478Z,95833.44
2023-04-15T07:56:46.377Z,95829.38
2023-04-15T07:59:18.612Z,95832.34
2023-04-15T08:01:45.617Z,95828.94
2023-04-15T08:04:13.875Z,95828.38
2023-04-15T08:06:40.991Z,95826.13
2023-04-15T08:09:08.545Z,95827.38
2023-04-15T08:11:36.756Z,95826.13
2023-04-15T08:14:04.474Z,95821.13
2023-04-15T08:16:33.546Z,95822.50
2023-04-15T08:19:01.235Z,95824.13
2023-04-15T08:21:35.561Z,95831.09
2023-04-15T08:24:07.369Z,95828.13
2023-04-15T08:26:34.383Z,95833.00
2023-04-15T08:29:04.759Z,95832.06
2023-04-15T08:31:32.710Z,95830.47
2023-04-15T08:34:00.773Z,95831.59
2023-04-15T08:36:29.123Z,95832.84
2023-04-15T08:38:56.809Z,95834.19
2023-04-15T08:41:36.109Z,95836.91
2023-04-15T08:44:06.666Z,95839.03
2023-04-15T08:46:37.160Z,95836.59
2023-04-15T08:49:13.248Z,95838.28
2023-04-15T08:51:46.878Z,95837.25
2023-04-15T08:54:15.713Z,95830.22
2023-04-15T08:56:43.453Z,95834.19
2023-04-15T08:59:11.346Z,95837.94
2023-04-15T09:01:41.487Z,95834.41
2023-04-15T09:04:09.051Z,95844.38
2023-04-15T09:06:36.390Z,95844.59
2023-04-15T09:09:14.668Z,95849.59
2023-04-15T09:11:43.307Z,95845.00
2023-04-15T09:14:10.869Z,95852.50
2023-04-15T09:17:01.453Z,95854.38
2023-04-15T09:19:30.173Z,95857.50
2023-04-15T09:22:06.465Z,95860.63
2023-04-15T09:24:42.389Z,95857.09
2023-04-15T09:27:11.460Z,95860.81
2023-04-15T09:29:43.091Z,95859.38
2023-04-15T09:32:18.336Z,95863.09
2023-04-15T09:34:49.185Z,95868.25
2023-04-15T09:37:31.607Z,95868.22
2023-04-15T09:39:59.568Z,95868.41
2023-04-15T09:42:30.453Z,95862.94
2023-04-15T09:45:12.250Z,95867.91
2023-04-15T09:47:40.849Z,95867.63
2023-04-15T09:50:12.332Z,95863.41
2023-04-15T09:52:46.863Z,95879.38
2023-04-15T09:55:17.242Z,95877.06
2023-04-15T09:57:47.495Z,95871.97
2023-04-15T10:00:16.505Z,95868.81
2023-04-15T10:02:44.657Z,95875.84
2023-04-15T10:05:15.515Z,95875.22
2023-04-15T10:07:42.957Z,95872.44
2023-04-15T10:10:14.256Z,95867.84
2023-04-15T10:12:43.370Z,95872.63
2023-04-15T10:15:28.397Z,95880.97
2023-04-15T10:18:01.353Z,95878.66
2023-04-15T10:20:33.752Z,95885.13
2023-04-15T10:23:03.012Z,95880.31
2023-04-15T10:25:35.944Z,95880.75
2023-04-15T10:28:03.691Z,95888.22
2023-04-15T10:30:33.725Z,95878.66
2023-04-15T10:33:05.310Z,95892.63
2023-04-15T10:35:40.948Z,95886.63
2023-04-15T10:38:43.520Z,95886.41
2023-04-15T10:41:28.208Z,95902.91
2023-04-15T10:44:07.025Z,95904.59
2023-04-15T10:46:43.839Z,95900.66
2023-04-15T10:49:17.417Z,95900.25
2023-04-15T10:51:59.870Z,95905.50
2023-04-15T10:54:28.657Z,95907.56
2023-04-15T10:57:01.768Z,95915.34
2023-04-15T11:00:00.596Z,95929.53
2023-04-15T11:03:08.336Z,95916.09
2023-04-15T11:05:56.297Z,95921.31
2023-04-15T11:09:01.888Z,95940.06
2023-04-15T11:12:08.999Z,95924.28
2023-04-15T11:14:41.912Z,95932.59
2023-04-15T11:17:09.559Z,95925.72
2023-04-15T11:19:43.625Z,95930.09
2023-04-15T11:22:11.841Z,95928.19
2023-04-15T11:24:52.220Z,95935.91
2023-04-15T11:27:23.951Z,95930.09
2023-04-15T11:29:52.808Z,95930.50
2023-04-15T11:32:23.559Z,95937.56
2023-04-15T11:35:04.688Z,95933.19
2023-04-15T11:37:32.485Z,95935.44
2023-04-15T11:40:07.305Z,95945.88
2023-04-15T11:42:48.729Z,95940.25
2023-04-15T11:45:17.064Z,95946.28
2023-04-15T11:47:53.647Z,95948.16
2023-04-15T11:50:26.132Z,95950.41
2023-04-15T11:53:01.367Z,95957.66
2023-04-15T11:55:29.985Z,95949.09
2023-04-15T11:58:14.456Z,95955.94
2023-04-15T12:00:54.636Z,95958.41
2023-04-15T12:03:42.596Z,95965.88
2023-04-15T12:06:22.637Z,95960.47
2023-04-15T12:08:56.112Z,95958.84
2023-04-15T12:11:53.875Z,95959.66
2023-04-15T12:14:33.865Z,95962.81
2023-04-15T12:17:02.932Z,95973.06
2023-04-15T12:19:43.224Z,95969.06
2023-04-15T12:22:16.844Z,95979.47
2023-04-15T12:24:48.126Z,95978.22
2023-04-15T12:27:17.257Z,95989.25
2023-04-15T12:29:45.389Z,95978.84
2023-04-15T12:32:14.794Z,95999.88
2023-04-15T12:34:58.636Z,95994.69
2023-04-15T12:37:26.604Z,96003.38
2023-04-15T12:39:56.020Z,96003.75
2023-04-15T12:42:23.531Z,95993.72
2023-04-15T12:44:51.441Z,96005.81
2023-04-15T12:47:19.224Z,96021.41
2023-04-15T12:49:49.715Z,96021.00
2023-04-15T12:52:16.832Z,96013.31
2023-04-15T12:54:44.885Z,96003.94
2023-04-15T12:57:12.242Z,96018.13
2023-04-15T12:59:43.200Z,96017.69
2023-04-15T13:02:14.218Z,96019.13
2023-04-15T13:04:42.018Z,96025.59
2023-04-15T13:07:14.490Z,96032.66
2023-04-15T13:09:44.841Z,96040.59
2023-04-15T13:12:13.986Z,96040.41
2023-04-15T13:14:41.398Z,96047.31
2023-04-15T13:17:10.196Z,96054.59
2023-04-15T13:19:37.190Z,96055.66
2023-04-15T13:22:04.020Z,96050.28
2023-04-15T13:24:31.026Z,96063.59
2023-04-15T13:26:59.168Z,96065.28
2023-04-15T13:29:26.489Z,96061.97
2023-04-15T13:31:53.380Z,96065.28
2023-04-15T13:34:20.212Z,96066.75
2023-04-15T13:36:47.264Z,96065.31
2023-04-15T13:39:14.139Z,96069.69
2023-04-15T13:41:41.673Z,96081.28
2023-04-15T13:44:09.537Z,96083.16
2023-04-15T13:46:37.990Z,96081.47
2023-04-15T13:49:04.879Z,96086.03
2023-04-15T13:51:33.253Z,96089.75
2023-04-15T13:54:07.254Z,96082.44
2023-04-15T13:56:42.604Z,96091.53
2023-04-15T13:59:10.208Z,96094.78
2023-04-15T14:01:37.128Z,96095.78
2023-04-15T14:04:05.420Z,96101.16
2023-04-15T14:06:33.856Z,96105.28
2023-04-15T14:09:00.892Z,96109.19
2023-04-15T14:11:30.176Z,96113.78
2023-04-15T14:14:06.975Z,96108.59
2023-04-15T14:16:37.856Z,96109.41
2023-04-15T14:19:18.899Z,96111.50
2023-04-15T14:21:46.532Z,96124.50
2023-04-15T14:24:15.661Z,96127.41
2023-04-15T14:26:44.892Z,96115.94
2023-04-15T14:29:13.205Z,96123.81
2023-04-15T14:31:44.781Z,96129.56
2023-04-15T14:34:32.086Z,96125.78
2023-04-15T14:36:59.129Z,96135.50
2023-04-15T14:39:29.083Z,96137.13
2023-04-15T14:42:02.292Z,96137.28
2023-04-15T14:44:39.474Z,96148.00
2023-04-15T14:47:07.675Z,96151.72
2023-04-15T14:49:37.541Z,96157.03
2023-04-15T14:52:07.428Z,96174.00
2023-04-15T14:54:36.395Z,96158.56
2023-04-15T14:57:04.185Z,96166.22
2023-04-15T14:59:32.217Z,96155.84
2023-04-15T15:01:59.922Z,96167.00
2023-04-15T15:04:33.749Z,96176.09
2023-04-15T15:07:01.763Z,96159.28
2023-04-15T15:09:30.419Z,96191.16
2023-04-15T15:12:01.534Z,96180.78
2023-04-15T15:14:28.692Z,96166.28
2023-04-15T15:16:58.584Z,96177.69
2023-04-15T15:19:29.156Z,96171.72
2023-04-15T15:21:57.118Z,96171.38
2023-04-15T15:24:24.550Z,96176.38
2023-04-15T15:26:52.517Z,96190.47
2023-04-15T15:29:22.204Z,96184.25
2023-04-15T15:31:50.462Z,96183.69
2023-04-15T15:34:20.903Z,96191.75
2023-04-15T15:36:51.889Z,96186.81
2023-04-15T15:39:19.108Z,96199.72
2023-04-15T15:41:45.951Z,96205.75
2023-04-15T15:44:13.369Z,96204.72
2023-04-15T15:46:40.850Z,96206.59
2023-04-15T15:49:12.889Z,96208.00
2023-04-15T15:51:40.113Z,96212.13
2023-04-15T15:54:07.238Z,96219.13
2023-04-15T15:56:39.163Z,96227.78
2023-04-15T15:59:07.962Z,96227.28
2023-04-15T16:01:36.867Z,96232.84
2023-04-15T16:04:12.135Z,96235.28
2023-04-15T16:06:41.175Z,96237.16
2023-04-15T16:09:08.184Z,96236.69
2023-04-15T16:11:35.381Z,96239.75
2023-04-15T16:14:03.609Z,96242.19
2023-04-15T16:16:31.626Z,96238.41
2023-04-15T16:18:59.069Z,96265.91
2023-04-15T16:21:27.548Z,96264.78
2023-04-15T16:23:55.181Z,96261.19
2023-04-15T16:26:27.787Z,96268.34
2023-04-15T16:28:56.452Z,96275.28
2023-04-15T16:31:27.022Z,96282.06
2023-04-15T16:33:54.354Z,96284.69
2023-04-15T16:36:22.191Z,96288.09
2023-04-15T16:38:53.560Z,96293.19
2023-04-15T16:41:21.098Z,96292.94
2023-04-15T16:43:54.488Z,96307.28
2023-04-15T16:46:21.811Z,96315.28
2023-04-15T16:48:53.413Z,96315.50
2023-04-15T16:51:20.745Z,96311.72
2023-04-15T16:53:52.783Z,96325.53
2023-04-15T16:56:21.629Z,96321.63
2023-04-15T16:58:48.849Z,96331.13
2023-04-15T17:01:16.219Z,96327.16
2023-04-15T17:03:44.086Z,96347.25
2023-04-15T17:06:16.412Z,96348.66
2023-04-15T17:08:44.942Z,96336.94
2023-04-15T17:11:12.434Z,96355.97
2023-04-15T17:13:39.612Z,96349.78
2023-04-15T17:16:12.080Z,96351.00
2023-04-15T17:18:38.989Z,96365.97
2023-04-15T17:21:06.156Z,96373.03
2023-04-15T17:23:40.064Z,96377.59
2023-04-15T17:26:06.920Z,96376.06
2023-04-15T17:28:34.385Z,96379.06
2023-04-15T17:31:01.864Z,96376.91
2023-04-15T17:33:56.354Z,96385.97
2023-04-15T17:36:19.582Z,96397.41
2023-04-15T17:38:47.020Z,96410.47
2023-04-15T17:41:14.103Z,96412.69
2023-04-15T17:43:41.378Z,96411.50
2023-04-15T17:46:08.368Z,96417.56
2023-04-15T17:48:35.344Z,96421.91
2023-04-15T17:51:02.518Z,96411.50
2023-04-15T17:53:29.439Z,96426.44
2023-04-15T17:55:57.570Z,96431.47
2023-04-15T17:58:24.468Z,96441.69
2023-04-15T18:00:51.289Z,96440.16
2023-04-15T18:03:18.176Z,96445.03
2023-04-15T18:05:45.224Z,96446.34
2023-04-15T18:08:12.076Z,96454.75
2023-04-15T18:10:39.406Z,96448.06
2023-04-15T18:13:06.448Z,96451.06
2023-04-15T18:15:33.382Z,96451.38
2023-04-15T18:18:00.936Z,96458.06
2023-04-15T18:20:29.522Z,96463.75
2023-04-15T18:22:57.009Z,96461.25
2023-04-15T18:25:23.917Z,96462.41
2023-04-15T18:27:50.869Z,96468.94
2023-04-15T18:30:17.708Z,96455.88
2023-04-15T18:32:44.729Z,96473.97
2023-04-15T18:35:11.775Z,96475.94
2023-04-15T18:37:38.918Z,96475.28
2023-04-15T18:40:07.425Z,96481.97
2023-04-15T18:42:34.207Z,96487.47
2023-04-15T18:45:01.076Z,96485.16
2023-04-15T18:47:28.178Z,96490.81
2023-04-15T18:49:55.246Z,96493.63
2023-04-15T18:52:22.093Z,96497.66
2023-04-15T18:54:49.199Z,96495.44
2023-04-15T18:57:23.539Z,96498.47
2023-04-15T18:59:59.939Z,96506.97
2023-04-15T19:02:27.067Z,96497.44
2023-04-15T19:04:53.971Z,96519.13
2023-04-15T19:07:20.848Z,96519.97
2023-04-15T19:09:47.726Z,96524.50
2023-04-15T19:12:14.535Z,96522.81
2023-04-15T19:14:41.615Z,96526.50
2023-04-15T19:17:08.418Z,96527.66
2023-04-15T19:19:35.349Z,96537.84
2023-04-15T19:22:03.448Z,96534.31
2023-04-15T19:24:33.109Z,96529.28
2023-04-15T19:27:01.380Z,96528.44
2023-04-15T19:29:28.701Z,96548.19
2023-04-15T19:31:55.996Z,96545.00
2023-04-15T19:34:23.129Z,96544.47
2023-04-15T19:36:50.044Z,96536.72
2023-04-15T19:39:18.519Z,96538.56
2023-04-15T19:41:45.827Z,96549.44
2023-04-15T19:44:13.490Z,96562.13
2023-04-15T19:46:43.527Z,96559.81
2023-04-15T19:49:10.725Z,96547.56
2023-04-15T19:51:37.572Z,96562.78
2023-04-15T19:54:04.406Z,96554.06
2023-04-15T19:56:32.921Z,96554.91
2023-04-15T19:59:02.158Z,96563.09
2023-04-15T20:01:29.142Z,96563.78
2023-04-15T20:03:56.251Z,96562.78
2023-04-15T20:06:23.262Z,96561.94
2023-04-15T20:08:50.223Z,96573.50
2023-04-15T20:11:17.014Z,96564.75
2023-04-15T20:13:43.843Z,96568.44
2023-04-15T20:16:11.677Z,96562.25
2023-04-15T20:18:39.069Z,96570.13
2023-04-15T20:21:05.993Z,96570.81
2023-04-15T20:23:35.667Z,96565.47
2023-04-15T20:26:02.481Z,96572.47
2023-04-15T20:28:29.438Z,96576.84
2023-04-15T20:30:56.336Z,96575.03
2023-04-15T20:33:24.656Z,96569.81
2023-04-15T20:35:51.847Z,96565.28
2023-04-15T20:38:18.813Z,96568.97
2023-04-15T20:40:45.723Z,96570.66
2023-04-15T20:43:12.677Z,96577.84
2023-04-15T20:45:39.581Z,96573.31
2023-04-15T20:48:06.687Z,96572.47
2023-04-15T20:50:33.633Z,96574.31
2023-04-15T20:53:00.793Z,96580.50
2023-04-15T20:55:28.988Z,96578.66
2023-04-15T20:57:58.237Z,96591.09
2023-04-15T21:00:25.222Z,96584.03
2023-04-15T21:02:52.121Z,96592.06
2023-04-15T21:05:19.015Z,96580.38
2023-04-15T21:07:45.811Z,96588.41
2023-04-15T21:10:12.627Z,96581.34
2023-04-15T21:12:41.001Z,96588.53
2023-04-15T21:15:08.913Z,96583.50
2023-04-15T21:17:35.772Z,96587.03
2023-04-15T21:20:05.221Z,96590.56
2023-04-15T21:22:32.350Z,96598.72
2023-04-15T21:24:59.210Z,96591.53
2023-04-15T21:27:26.183Z,96597.88
2023-04-15T21:29:53.048Z,96601.56
2023-04-15T21:32:19.949Z,96602.56
2023-04-15T21:34:46.788Z,96616.09
2023-04-15T21:37:13.662Z,96601.03
2023-04-15T21:39:40.581Z,96619.75
2023-04-15T21:42:07.412Z,96620.59
2023-04-15T21:44:34.208Z,96621.44
2023-04-15T21:47:01.118Z,96611.59
2023-04-15T21:49:27.974Z,96625.81
2023-04-15T21:51:54.807Z,96630.84
2023-04-15T21:54:21.646Z,96624.66
2023-04-15T21:56:49.678Z,96627.31
2023-04-15T21:59:16.589Z,96614.28
2023-04-15T22:01:43.537Z,96630.63
2023-04-15T22:04:11.183Z,96624.56
2023-04-15T22:06:38.610Z,96636.28
2023-04-15T22:09:05.748Z,96637.28
2023-04-15T22:11:32.920Z,96633.78
2023-04-15T22:14:01.077Z,96649.84
2023-04-15T22:16:28.489Z,96635.63
2023-04-15T22:18:56.102Z,96652.63
2023-04-15T22:21:23.443Z,96639.25
2023-04-15T22:23:51.032Z,96658.16
2023-04-15T22:26:17.837Z,96657.31
2023-04-15T22:28:45.239Z,96661.00
2023-04-15T22:31:12.189Z,96656.47
2023-04-15T22:33:39.168Z,96665.34
2023-04-15T22:36:06.299Z,96663.69
2023-04-15T22:38:33.775Z,96669.88
2023-04-15T22:41:00.558Z,96672.53
2023-04-15T22:43:27.721Z,96672.38
2023-04-15T22:45:54.909Z,96676.59
2023-04-15T22:48:22.129Z,96675.59
2023-04-15T22:50:49.393Z,96677.25
2023-04-15T22:53:20.016Z,96678.81
2023-04-15T22:55:48.462Z,96682.31
2023-04-15T22:58:16.940Z,96679.47
2023-04-15T23:00:44.587Z,96675.84
2023-04-15T23:03:12.425Z,96672.28
2023-04-15T23:05:41.045Z,96690.88
2023-04-15T23:08:08.099Z,96676.66
2023-04-15T23:10:34.876Z,96678.50
2023-04-15T23:13:01.802Z,96679.47
2023-04-15T23:15:28.819Z,96688.34
2023-04-15T23:17:55.688Z,96689.22
2023-04-15T23:20:22.583Z,96685.53
2023-04-15T23:22:49.564Z,96696.91
2023-04-15T23:25:16.582Z,96693.22
2023-04-15T23:27:43.491Z,96698.75
2023-04-15T23:30:11.812Z,96697.06
2023-04-15T23:32:38.866Z,96705.09
2023-04-15T23:35:06.129Z,96706.94
2023-04-15T23:37:32.972Z,96709.47
2023-04-15T23:39:59.833Z,96702.44
2023-04-15T23:42:27.009Z,96708.78
2023-04-15T23:44:53.916Z,96709.75
2023-04-15T23:47:21.659Z,96699.91
2023-04-15T23:49:48.582Z,96701.59
2023-04-15T23:52:16.523Z,96711.31
2023-04-15T23:54:43.317Z,96715.81
2023-04-15T23:57:12.693Z,96705.94
2023-04-15T23:59:39.882Z,96712.97
